Time;durP1;ratioP1;P1;durP2;ratioP2;P2;SDS_P1;SDS_P2;PMS_P1;PMS_P2;Temp;Humidity;BMP_temperature;BMP_pressure;BME280_temperature;BME280_humidity;BME280_pressure;Samples;Min_cycle;Max_cycle;Signal;HPM_P1;HPM_P2
2022/01/08 00:01:11;;;;;;;27.85;13.73;;;;;;;-0.17;100.00;100990.81;4963802;28;20560;-46
2022/01/08 00:03:40;;;;;;;25.77;13.20;;;;;;;-0.17;100.00;100983.81;4962719;28;20031;-48
2022/01/08 00:06:05;;;;;;;29.15;13.23;;;;;;;-0.16;100.00;100988.09;4963253;28;20559;-44
2022/01/08 00:08:31;;;;;;;31.88;14.63;;;;;;;-0.16;100.00;100985.47;4964161;28;20162;-48
2022/01/08 00:10:57;;;;;;;37.58;13.90;;;;;;;-0.19;100.00;100990.91;4962824;28;20140;-43
2022/01/08 00:13:22;;;;;;;34.90;14.70;;;;;;;-0.23;100.00;100992.84;4963606;28;20148;-47
2022/01/08 00:15:48;;;;;;;28.48;13.73;;;;;;;-0.26;100.00;100992.19;4963183;28;20117;-45
2022/01/08 00:18:13;;;;;;;34.38;14.73;;;;;;;-0.27;100.00;100999.22;4962752;28;20060;-46
2022/01/08 00:20:39;;;;;;;33.20;13.75;;;;;;;-0.28;100.00;101008.03;4963212;28;20100;-44
2022/01/08 00:23:04;;;;;;;34.35;14.90;;;;;;;-0.29;100.00;101008.97;4963488;28;20051;-47
2022/01/08 00:25:29;;;;;;;28.90;13.50;;;;;;;-0.28;100.00;101010.66;4962560;28;20034;-44
2022/01/08 00:27:55;;;;;;;34.58;14.70;;;;;;;-0.32;100.00;101010.91;4963336;28;20443;-46
2022/01/08 00:30:20;;;;;;;31.40;14.55;;;;;;;-0.31;100.00;101010.81;4963258;28;20038;-46
2022/01/08 00:32:46;;;;;;;29.50;14.90;;;;;;;-0.31;100.00;101020.47;4962695;28;20030;-43
2022/01/08 00:35:11;;;;;;;32.70;14.23;;;;;;;-0.33;100.00;101017.09;4963267;28;20054;-44
2022/01/08 00:37:37;;;;;;;28.65;15.00;;;;;;;-0.35;100.00;101016.34;4963292;28;20177;-46
2022/01/08 00:40:08;;;;;;;27.38;13.23;;;;;;;-0.35;100.00;101016.34;4962761;28;20037;-46
2022/01/08 00:42:34;;;;;;;27.48;13.13;;;;;;;-0.36;100.00;101018.09;4962461;28;20067;-46
2022/01/08 00:45:00;;;;;;;29.98;13.48;;;;;;;-0.39;100.00;101006.03;4963775;28;20428;-47
2022/01/08 00:47:25;;;;;;;35.35;13.90;;;;;;;-0.39;100.00;101024.38;4962374;28;20021;-48
2022/01/08 00:49:51;;;;;;;28.08;13.00;;;;;;;-0.37;100.00;101034.81;4962989;28;20457;-48
2022/01/08 00:52:16;;;;;;;32.83;13.57;;;;;;;-0.33;100.00;101043.34;4963104;28;20067;-44
2022/01/08 00:54:41;;;;;;;29.10;12.60;;;;;;;-0.26;100.00;101042.91;4961981;28;20050;-48
2022/01/08 00:57:06;;;;;;;31.45;12.20;;;;;;;-0.14;100.00;101037.91;4962904;28;20042;-43
2022/01/08 00:59:32;;;;;;;27.10;12.23;;;;;;;-0.07;100.00;101047.97;4963307;28;20041;-49
2022/01/08 01:01:57;;;;;;;30.67;12.45;;;;;;;-0.03;100.00;101044.22;4962789;28;20083;-47
2022/01/08 01:04:23;;;;;;;23.70;11.70;;;;;;;-0.01;100.00;101041.50;4961992;28;20019;-44
2022/01/08 01:06:48;;;;;;;25.05;11.95;;;;;;;-0.03;100.00;101040.75;4962562;28;20029;-47
2022/01/08 01:09:14;;;;;;;35.70;11.75;;;;;;;-0.10;100.00;101034.16;4944891;28;20102;-47
2022/01/08 01:11:40;;;;;;;20.73;10.70;;;;;;;-0.17;100.00;101033.69;4961712;28;20023;-45
2022/01/08 01:14:05;;;;;;;24.85;11.90;;;;;;;-0.21;100.00;101032.16;4962742;28;20233;-46
2022/01/08 01:16:30;;;;;;;28.80;12.18;;;;;;;-0.34;100.00;101018.03;4962803;28;20054;-43
2022/01/08 01:18:58;;;;;;;23.48;12.10;;;;;;;-0.33;100.00;101030.22;4960395;28;20524;-47
2022/01/08 01:21:23;;;;;;;21.33;11.60;;;;;;;-0.39;100.00;101024.38;4962096;28;20101;-48
2022/01/08 01:23:50;;;;;;;26.80;11.95;;;;;;;-0.43;100.00;101017.59;4961726;28;20125;-43
2022/01/08 01:26:20;;;;;;;23.05;11.65;;;;;;;-0.47;100.00;101023.13;4961791;28;20071;-47
2022/01/08 01:28:56;;;;;;;26.02;11.25;;;;;;;-0.49;100.00;101033.72;4962091;28;20077;-48
2022/01/08 01:47:12;;;;;;;27.83;11.50;;;;;;;-0.55;100.00;101041.06;4961452;28;20041;-43
2022/01/08 01:49:39;;;;;;;34.10;12.80;;;;;;;-0.55;100.00;101055.03;4962032;28;20061;-45
2022/01/08 01:52:07;;;;;;;26.73;12.32;;;;;;;-0.54;100.00;101045.38;4962234;28;20027;-44
2022/01/08 01:54:33;;;;;;;28.95;12.95;;;;;;;-0.55;100.00;101043.69;4959853;28;20116;-43
2022/01/08 01:57:01;;;;;;;31.10;12.75;;;;;;;-0.53;100.00;101040.03;4961772;28;20382;-44
2022/01/08 01:59:28;;;;;;;30.75;12.25;;;;;;;-0.53;100.00;101037.41;4962044;28;20462;-46
2022/01/08 02:01:54;;;;;;;23.98;12.25;;;;;;;-0.55;100.00;101041.91;4960756;28;20053;-45
2022/01/08 02:04:20;;;;;;;28.33;12.07;;;;;;;-0.56;100.00;101032.34;4962104;28;20022;-43
2022/01/08 02:06:45;;;;;;;33.80;12.85;;;;;;;-0.59;100.00;101035.16;4961491;28;20019;-43
2022/01/08 02:09:11;;;;;;;31.67;13.32;;;;;;;-0.59;100.00;101037.78;4961652;28;20041;-44
2022/01/08 02:12:02;;;;;;;25.85;12.48;;;;;;;-0.62;100.00;101046.63;4960475;28;20031;-45
2022/01/08 02:14:29;;;;;;;29.67;12.25;;;;;;;-0.68;100.00;101031.25;4962253;28;20041;-45
2022/01/08 02:16:55;;;;;;;30.10;13.57;;;;;;;-0.70;100.00;101029.63;4960844;28;20446;-44
2022/01/08 02:19:21;;;;;;;31.70;13.48;;;;;;;-0.70;100.00;101040.13;4962040;28;20097;-44
2022/01/08 02:21:54;;;;;;;31.65;14.63;;;;;;;-0.70;100.00;101048.00;4962035;28;20050;-44
2022/01/08 02:24:21;;;;;;;30.23;14.25;;;;;;;-0.71;100.00;101046.28;4961407;28;20402;-43
2022/01/08 02:26:46;;;;;;;33.38;14.38;;;;;;;-0.72;100.00;101047.22;4961296;28;20497;-44
2022/01/08 02:29:17;;;;;;;33.58;15.70;;;;;;;-0.72;100.00;101052.47;4961974;28;20031;-43
2022/01/08 02:31:56;;;;;;;30.30;15.02;;;;;;;-0.72;100.00;101036.75;4965286;28;20114;-45
2022/01/08 02:34:22;;;;;;;32.47;14.73;;;;;;;-0.75;100.00;101043.00;4965491;28;20057;-42
2022/01/08 02:36:47;;;;;;;32.15;16.50;;;;;;;-0.76;100.00;101050.00;4964769;28;20014;-47
2022/01/08 02:39:13;;;;;;;33.40;17.25;;;;;;;-0.77;100.00;101050.09;4965505;28;20525;-46
2022/01/08 02:41:40;;;;;;;38.83;16.33;;;;;;;-0.77;100.00;101055.34;4965378;28;20038;-43
2022/01/08 02:44:09;;;;;;;28.35;16.25;;;;;;;-0.78;100.00;101048.38;4948197;28;20362;-45
2022/01/08 02:46:34;;;;;;;39.30;18.17;;;;;;;-0.80;100.00;101058.13;4965188;28;20026;-44
2022/01/08 02:49:00;;;;;;;44.83;18.55;;;;;;;-0.80;100.00;101047.63;4965139;28;20046;-44
2022/01/08 02:51:25;;;;;;;36.60;17.38;;;;;;;-0.79;100.00;101060.66;4965163;28;20446;-43
2022/01/08 02:53:51;;;;;;;39.75;18.55;;;;;;;-0.79;100.00;101047.56;4964316;28;20026;-43
2022/01/08 02:56:17;;;;;;;36.30;18.73;;;;;;;-0.79;100.00;101051.97;4964462;28;20489;-46
2022/01/08 02:58:43;;;;;;;42.47;18.00;;;;;;;-0.79;100.00;101054.59;4964820;28;20445;-46
2022/01/08 03:01:08;;;;;;;42.50;19.58;;;;;;;-0.76;100.00;101062.28;4965144;28;20035;-47
2022/01/08 03:03:33;;;;;;;40.05;18.63;;;;;;;-0.76;100.00;101054.44;4964442;28;20521;-47
2022/01/08 03:05:59;;;;;;;43.75;20.90;;;;;;;-0.75;100.00;101063.97;4948143;28;20019;-45
2022/01/08 03:08:24;;;;;;;41.10;19.80;;;;;;;-0.80;100.00;101045.88;4963551;28;20457;-44
2022/01/08 03:10:49;;;;;;;44.25;19.17;;;;;;;-0.76;100.00;101054.44;4963803;28;20026;-43
2022/01/08 03:13:15;;;;;;;47.63;19.02;;;;;;;-0.77;100.00;101050.94;4964413;28;20481;-44
2022/01/08 03:15:41;;;;;;;44.40;19.50;;;;;;;-0.77;100.00;101047.47;4964264;28;20022;-44
2022/01/08 03:18:07;;;;;;;37.25;18.92;;;;;;;-0.77;100.00;101050.94;4964272;28;20371;-43
2022/01/08 03:20:35;;;;;;;41.70;18.23;;;;;;;-0.77;100.00;101052.72;4964453;28;20393;-42
2022/01/08 03:23:03;;;;;;;41.60;18.73;;;;;;;-0.83;100.00;101043.41;4965192;28;20046;-48
2022/01/08 03:25:30;;;;;;;46.38;17.75;;;;;;;-0.81;100.00;101048.59;4964035;28;20351;-44
2022/01/08 03:27:56;;;;;;;39.35;18.70;;;;;;;-0.84;100.00;101039.09;4964544;28;20023;-43
2022/01/08 03:30:23;;;;;;;42.78;18.13;;;;;;;-0.80;100.00;101048.50;4963981;28;20331;-43
2022/01/08 03:32:48;;;;;;;34.72;17.48;;;;;;;-0.80;100.00;101053.75;4963311;28;20034;-43
2022/01/08 03:35:14;;;;;;;38.05;17.85;;;;;;;-0.78;100.00;101057.13;4964264;28;20568;-43
2022/01/08 03:37:39;;;;;;;39.05;17.15;;;;;;;-0.77;100.00;101055.34;4964049;28;20015;-45
2022/01/08 03:40:06;;;;;;;36.35;18.02;;;;;;;-0.74;100.00;101051.72;4963845;28;20038;-44
2022/01/08 03:42:32;;;;;;;34.92;17.08;;;;;;;-0.74;100.00;101060.44;4963465;28;20093;-46
2022/01/08 03:44:57;;;;;;;39.10;16.85;;;;;;;-0.74;100.00;101064.84;4964691;28;20035;-43
2022/01/08 03:49:48;;;;;;;44.72;17.60;;;;;;;-0.79;100.00;101062.44;4963900;28;20045;-46
2022/01/08 03:52:13;;;;;;;49.35;18.00;;;;;;;-0.81;100.00;101069.56;4964202;28;20194;-43
2022/01/08 03:54:39;;;;;;;38.25;17.40;;;;;;;-0.81;100.00;101057.28;4963662;28;20033;-44
2022/01/08 03:57:05;;;;;;;37.72;16.42;;;;;;;-0.81;100.00;101061.69;4946813;28;20381;-44
2022/01/08 03:59:30;;;;;;;39.47;16.70;;;;;;;-0.85;100.00;101061.03;4964696;28;20106;-44
2022/01/08 04:01:57;;;;;;;41.15;18.52;;;;;;;-0.87;100.00;101060.22;4963060;28;20438;-42
2022/01/08 04:04:22;;;;;;;40.45;16.70;;;;;;;-0.87;100.00;101062.00;4964148;28;20556;-46
2022/01/08 04:06:47;;;;;;;38.75;17.17;;;;;;;-0.90;100.00;101072.66;4963468;28;20108;-44
2022/01/08 04:09:13;;;;;;;34.60;15.88;;;;;;;-0.93;100.00;101076.31;4946484;28;20027;-44
2022/01/08 04:11:39;;;;;;;36.42;15.77;;;;;;;-0.97;100.00;101080.88;4963336;28;20023;-44
2022/01/08 04:14:05;;;;;;;35.17;15.98;;;;;;;-0.99;100.00;101076.63;4964177;28;20101;-44
2022/01/08 04:16:33;;;;;;;39.95;16.00;;;;;;;-1.03;100.00;101070.69;4963059;28;20168;-44
2022/01/08 04:18:59;;;;;;;34.63;15.55;;;;;;;-1.06;100.00;101073.47;4964054;28;20631;-47
2022/01/08 04:23:50;;;;;;;40.60;16.77;;;;;;;-1.03;100.00;101072.47;4962461;28;20069;-43
2022/01/08 04:26:15;;;;;;;36.63;15.98;;;;;;;-1.05;100.00;101076.94;4945454;28;20470;-44
2022/01/08 04:28:41;;;;;;;38.28;15.60;;;;;;;-1.10;100.00;101087.69;4963571;28;20027;-45
2022/01/08 04:31:06;;;;;;;42.13;16.10;;;;;;;-1.11;100.00;101087.75;4963872;28;20027;-43
2022/01/08 04:33:31;;;;;;;35.85;14.60;;;;;;;-1.13;100.00;101095.69;4963118;28;20445;-43
2022/01/08 04:35:56;;;;;;;35.40;15.32;;;;;;;-1.11;100.00;101096.47;4963196;28;20101;-44
2022/01/08 04:38:23;;;;;;;41.63;16.13;;;;;;;-1.11;100.00;101090.38;4963626;28;20281;-46
2022/01/08 04:40:48;;;;;;;40.42;16.27;;;;;;;-1.09;100.00;101093.75;4962318;28;20026;-44
2022/01/08 04:43:14;;;;;;;46.33;15.57;;;;;;;-1.11;100.00;101098.25;4962621;28;20041;-42
2022/01/08 04:45:39;;;;;;;33.72;15.45;;;;;;;-1.10;100.00;101092.06;4962538;28;20118;-44
2022/01/08 04:48:06;;;;;;;40.15;17.98;;;;;;;-1.12;100.00;101084.28;4962694;28;20089;-48
2022/01/08 04:50:31;;;;;;;38.50;16.80;;;;;;;-1.12;100.00;101086.91;4963210;28;20037;-43
2022/01/08 04:52:57;;;;;;;39.42;17.48;;;;;;;-1.17;100.00;101086.28;4962750;28;20023;-43
2022/01/08 04:55:23;;;;;;;47.85;18.52;;;;;;;-1.11;100.00;101099.06;4961818;28;20066;-44
2022/01/08 04:57:48;;;;;;;44.72;17.60;;;;;;;-1.09;100.00;101106.88;4945216;28;20023;-45
2022/01/08 05:00:16;;;;;;;40.65;17.77;;;;;;;-1.08;100.00;101109.41;4962130;28;20030;-45
2022/01/08 05:02:41;;;;;;;40.83;16.48;;;;;;;-1.08;100.00;101105.94;4961526;28;20470;-42
2022/01/08 05:05:07;;;;;;;39.08;18.55;;;;;;;-1.08;100.00;101111.19;4945442;28;20027;-46
2022/01/08 05:07:33;;;;;;;44.40;16.98;;;;;;;-1.12;100.00;101097.41;4961401;28;20067;-43
2022/01/08 05:09:58;;;;;;;40.53;18.50;;;;;;;-1.07;100.00;101099.75;4962411;28;20022;-42
2022/01/08 05:12:23;;;;;;;41.42;19.35;;;;;;;-1.04;100.00;101108.31;4962908;28;20031;-43
2022/01/08 05:14:49;;;;;;;42.78;17.77;;;;;;;-1.04;100.00;101110.09;4960842;28;20023;-43
2022/01/08 05:17:14;;;;;;;37.28;17.27;;;;;;;-1.07;100.00;101112.88;4944215;28;20034;-43
2022/01/08 05:19:45;;;;;;;38.22;18.63;;;;;;;-1.09;100.00;101118.19;4961538;28;20085;-43
2022/01/08 05:22:18;;;;;;;36.30;17.60;;;;;;;-1.10;100.00;101113.03;4962455;28;20110;-43
2022/01/08 05:24:43;;;;;;;40.67;18.13;;;;;;;-1.10;100.00;101116.50;4961428;28;20066;-46
2022/01/08 05:27:12;;;;;;;44.15;19.25;;;;;;;-1.10;100.00;101111.28;4962252;28;20512;-47
2022/01/08 05:29:38;;;;;;;42.50;18.10;;;;;;;-1.10;100.00;101107.78;4962130;28;20039;-46
2022/01/08 05:32:03;;;;;;;42.08;17.75;;;;;;;-1.11;100.00;101109.56;4961560;28;20027;-45
2022/01/08 05:34:29;;;;;;;41.25;18.70;;;;;;;-1.07;100.00;101110.25;4961863;28;20114;-44
2022/01/08 05:36:54;;;;;;;39.08;18.63;;;;;;;-1.03;100.00;101117.03;4961757;28;20023;-43
2022/01/08 05:39:19;;;;;;;43.35;18.77;;;;;;;-0.95;100.00;101114.84;4961457;28;20134;-44
2022/01/08 05:41:45;;;;;;;41.00;18.63;;;;;;;-0.88;100.00;101116.22;4961406;28;20102;-45
2022/01/08 05:44:10;;;;;;;44.00;20.80;;;;;;;-0.82;100.00;101104.56;4961767;28;20040;-44
2022/01/08 05:46:35;;;;;;;41.78;19.38;;;;;;;-0.71;100.00;101114.47;4960705;28;20031;-44
2022/01/08 05:49:02;;;;;;;42.45;18.15;;;;;;;-0.67;100.00;101119.47;4962343;28;20516;-44
2022/01/08 05:51:27;;;;;;;39.60;19.02;;;;;;;-0.67;100.00;101116.84;4944708;28;20043;-44
2022/01/08 05:53:53;;;;;;;39.33;18.30;;;;;;;-0.68;100.00;101122.19;4961063;28;20038;-46
2022/01/08 05:56:18;;;;;;;43.28;20.90;;;;;;;-0.69;100.00;101121.34;4961373;28;20117;-44
2022/01/08 05:58:43;;;;;;;40.58;19.33;;;;;;;-0.69;100.00;101128.38;4961549;28;20185;-44
2022/01/08 06:01:09;;;;;;;37.22;17.00;;;;;;;-0.68;100.00;101135.31;4961918;28;20561;-44
2022/01/08 06:03:34;;;;;;;37.33;17.20;;;;;;;-0.69;100.00;101137.09;4960663;28;20289;-45
2022/01/08 06:05:59;;;;;;;46.67;20.15;;;;;;;-0.68;100.00;101138.78;4961834;28;20034;-43
2022/01/08 06:08:25;;;;;;;35.53;17.27;;;;;;;-0.66;100.00;101138.69;4961912;28;20030;-45
2022/01/08 06:10:50;;;;;;;44.85;20.55;;;;;;;-0.66;100.00;101141.31;4960417;28;20100;-47
2022/01/08 06:13:15;;;;;;;33.03;17.55;;;;;;;-0.66;100.00;101144.78;4961374;28;20381;-43
2022/01/08 06:15:41;;;;;;;36.90;17.83;;;;;;;-0.66;100.00;101142.16;4961164;28;20054;-44
2022/01/08 06:18:06;;;;;;;40.53;18.38;;;;;;;-0.64;100.00;101153.44;4943627;28;20023;-44
2022/01/08 06:20:31;;;;;;;36.25;19.13;;;;;;;-0.64;100.00;101142.09;4961799;28;20351;-44
2022/01/08 06:22:56;;;;;;;42.85;18.40;;;;;;;-0.58;100.00;101154.88;4961163;28;20050;-46
2022/01/08 06:25:22;;;;;;;44.95;19.30;;;;;;;-0.57;100.00;101146.91;4960927;28;20042;-45
2022/01/08 06:27:47;;;;;;;39.97;19.05;;;;;;;-0.58;100.00;101147.00;4961319;28;20030;-44
2022/01/08 06:30:12;;;;;;;39.97;18.52;;;;;;;-0.55;100.00;101153.88;4961394;28;20034;-43
2022/01/08 06:32:38;;;;;;;42.53;19.02;;;;;;;-0.55;100.00;101146.84;4960034;28;20030;-44
2022/01/08 06:35:03;;;;;;;41.97;20.05;;;;;;;-0.56;100.00;101147.78;4960370;28;20053;-44
2022/01/08 06:37:29;;;;;;;39.63;17.45;;;;;;;-0.56;100.00;101147.78;4961839;28;20018;-43
2022/01/08 06:39:54;;;;;;;40.60;16.98;;;;;;;-0.58;100.00;101144.38;4960305;28;20046;-44
2022/01/08 06:42:20;;;;;;;46.88;21.00;;;;;;;-0.56;100.00;101134.66;4961220;28;20015;-43
2022/01/08 06:44:45;;;;;;;36.05;18.30;;;;;;;-0.58;100.00;101140.00;4961175;28;20034;-42
2022/01/08 06:47:10;;;;;;;34.72;17.33;;;;;;;-0.63;100.00;101125.41;4960300;28;20022;-44
2022/01/08 06:49:36;;;;;;;39.53;18.90;;;;;;;-0.62;100.00;101122.72;4960478;28;20042;-43
2022/01/08 06:52:01;;;;;;;36.78;18.60;;;;;;;-0.63;100.00;101128.03;4961698;28;20022;-44
2022/01/08 06:54:27;;;;;;;41.08;18.58;;;;;;;-0.65;100.00;101122.88;4961399;28;20192;-43
2022/01/08 06:56:52;;;;;;;36.40;18.13;;;;;;;-0.68;100.00;101124.81;4943314;28;20232;-43
2022/01/08 06:59:17;;;;;;;50.72;19.15;;;;;;;-0.74;100.00;101127.78;4943685;28;20027;-46
2022/01/08 07:01:42;;;;;;;37.42;19.23;;;;;;;-0.76;100.00;101128.69;4959955;28;20046;-42
2022/01/08 07:04:08;;;;;;;36.85;18.67;;;;;;;-0.76;100.00;101133.94;4961561;28;20500;-45
2022/01/08 07:06:33;;;;;;;50.78;19.85;;;;;;;-0.77;100.00;101126.16;4961275;28;20101;-44
2022/01/08 07:08:58;;;;;;;39.83;18.85;;;;;;;-0.82;100.00;101136.03;4961372;28;20033;-47
2022/01/08 07:11:24;;;;;;;46.38;21.17;;;;;;;-0.86;100.00;101130.09;4960366;28;20084;-44
2022/01/08 07:13:49;;;;;;;51.05;20.50;;;;;;;-0.86;100.00;101129.28;4961289;28;20022;-43
2022/01/08 07:16:14;;;;;;;37.83;18.98;;;;;;;-0.89;100.00;101127.63;4944649;28;20039;-46
2022/01/08 07:18:40;;;;;;;35.85;19.17;;;;;;;-0.90;100.00;101123.34;4964424;28;20466;-45
2022/01/08 07:21:05;;;;;;;45.03;22.58;;;;;;;-0.92;100.00;101122.56;4965111;28;20046;-44
2022/01/08 07:23:30;;;;;;;41.58;20.15;;;;;;;-0.91;100.00;101126.88;4965128;28;20109;-46
2022/01/08 07:25:56;;;;;;;38.15;19.45;;;;;;;-0.91;100.00;101126.03;4963540;28;20146;-47
2022/01/08 07:28:21;;;;;;;50.25;19.58;;;;;;;-0.90;100.00;101123.34;4964195;28;20027;-44
2022/01/08 07:30:46;;;;;;;48.90;19.67;;;;;;;-0.90;100.00;101122.47;4963608;28;20030;-44
2022/01/08 07:33:11;;;;;;;41.33;19.33;;;;;;;-0.87;100.00;101122.31;4963580;28;20077;-43
2022/01/08 07:35:37;;;;;;;47.03;23.48;;;;;;;-0.87;100.00;101117.91;4963700;28;20417;-43
2022/01/08 07:38:03;;;;;;;45.33;19.25;;;;;;;-0.82;100.00;101115.88;4964646;28;20031;-44
2022/01/08 07:40:28;;;;;;;41.42;18.73;;;;;;;-0.81;100.00;101117.59;4963910;28;20046;-45
2022/01/08 07:42:53;;;;;;;45.72;20.85;;;;;;;-0.80;100.00;101119.31;4964051;28;20227;-44
2022/01/08 07:45:19;;;;;;;39.47;17.60;;;;;;;-0.75;100.00;101121.66;4964092;28;20324;-45
2022/01/08 07:47:46;;;;;;;44.45;21.80;;;;;;;-0.73;100.00;101116.34;4961553;28;20018;-43
2022/01/08 07:50:12;;;;;;;52.00;20.67;;;;;;;-0.71;100.00;101115.34;4946112;28;20027;-46
2022/01/08 07:52:37;;;;;;;39.72;17.95;;;;;;;-0.70;100.00;101110.94;4964130;28;20366;-44
2022/01/08 07:55:03;;;;;;;40.50;18.60;;;;;;;-0.67;100.00;101110.78;4963457;28;20067;-43
2022/01/08 07:57:28;;;;;;;41.60;17.70;;;;;;;-0.63;100.00;101109.66;4986108;28;20034;-44
2022/01/08 07:59:54;;;;;;;45.58;19.27;;;;;;;-0.60;100.00;101101.63;4982722;28;20457;-44
2022/01/08 08:02:20;;;;;;;40.85;17.45;;;;;;;-0.57;100.00;101107.56;4996120;28;20112;-45
2022/01/08 08:04:45;;;;;;;38.05;17.92;;;;;;;-0.51;100.00;101102.91;4986570;28;20068;-45
2022/01/08 08:07:11;;;;;;;50.03;19.67;;;;;;;-0.49;100.00;101101.91;4991614;28;20100;-45
2022/01/08 08:09:36;;;;;;;38.83;18.33;;;;;;;-0.43;100.00;101098.09;5001693;28;20034;-44
2022/01/08 08:12:04;;;;;;;43.72;18.77;;;;;;;-0.40;100.00;101101.41;5002548;28;20117;-44
2022/01/08 08:14:29;;;;;;;36.13;16.00;;;;;;;-0.35;100.00;101102.94;5002778;28;20026;-46
2022/01/08 08:16:55;;;;;;;45.15;19.95;;;;;;;-0.33;100.00;101098.44;4991973;28;20520;-44
2022/01/08 08:19:20;;;;;;;34.88;15.77;;;;;;;-0.31;100.00;101091.34;4963757;28;20129;-44
2022/01/08 08:21:45;;;;;;;33.15;16.27;;;;;;;-0.29;100.00;101086.84;4963376;28;20038;-44
2022/01/08 08:24:13;;;;;;;37.83;16.73;;;;;;;-0.28;100.00;101083.28;4963212;28;20047;-45
2022/01/08 08:26:38;;;;;;;42.35;15.75;;;;;;;-0.25;100.00;101081.34;4962934;28;20158;-44
2022/01/08 08:29:04;;;;;;;38.17;16.33;;;;;;;-0.22;100.00;101088.19;4962774;28;20110;-46
2022/01/08 08:31:29;;;;;;;31.98;16.70;;;;;;;-0.18;100.00;101091.50;4963004;28;20034;-44
2022/01/08 08:33:54;;;;;;;40.38;18.00;;;;;;;-0.16;100.00;101087.84;4963302;28;20030;-46
2022/01/08 08:36:20;;;;;;;39.03;17.17;;;;;;;-0.12;100.00;101081.50;4963464;28;20042;-42
2022/01/08 08:38:45;;;;;;;36.97;15.60;;;;;;;-0.09;100.00;101083.94;4962797;28;20031;-43
2022/01/08 08:41:11;;;;;;;44.25;16.35;;;;;;;-0.04;100.00;101075.81;4948454;28;20033;-42
2022/01/08 08:43:36;;;;;;;43.38;18.92;;;;;;;-0.02;100.00;101080.06;4965831;28;20031;-43
2022/01/08 08:46:02;;;;;;;38.90;17.35;;;;;;;0.02;100.00;101078.09;4962749;28;20109;-46
2022/01/08 08:48:27;;;;;;;39.13;17.55;;;;;;;0.05;100.00;101075.31;4963580;28;20035;-46
2022/01/08 08:50:52;;;;;;;39.65;18.40;;;;;;;0.10;100.00;101073.25;4944570;28;20033;-42
2022/01/08 08:53:18;;;;;;;37.25;16.15;;;;;;;0.16;100.00;101072.88;4963333;28;20490;-43
2022/01/08 08:55:43;;;;;;;38.95;17.40;;;;;;;0.20;100.00;101065.69;4962076;28;20550;-42
2022/01/08 08:58:08;;;;;;;31.98;15.27;;;;;;;0.24;100.00;101064.59;4963130;28;20517;-44
2022/01/08 09:00:34;;;;;;;34.40;17.48;;;;;;;0.28;100.00;101076.59;4962741;28;20271;-44
2022/01/08 09:02:59;;;;;;;35.90;16.55;;;;;;;0.32;100.00;101067.63;4963095;28;20525;-47
2022/01/08 09:05:25;;;;;;;39.13;15.93;;;;;;;0.36;100.00;101073.53;4963176;28;20023;-47
2022/01/08 09:07:50;;;;;;;37.88;17.23;;;;;;;0.41;100.00;101073.25;4962379;28;20027;-42
2022/01/08 09:10:15;;;;;;;44.85;19.60;;;;;;;0.47;100.00;101073.72;4961372;28;20023;-47
2022/01/08 09:12:41;;;;;;;48.33;19.15;;;;;;;0.50;100.00;101085.84;4962001;28;20053;-44
2022/01/08 09:15:08;;;;;;;34.80;16.90;;;;;;;0.53;100.00;101073.38;4963089;28;20027;-46
2022/01/08 09:17:38;;;;;;;48.90;19.05;;;;;;;0.54;100.00;101079.47;4961365;28;20049;-44
2022/01/08 09:20:05;;;;;;;45.80;18.90;;;;;;;0.57;100.00;101070.56;4962936;28;20030;-45
2022/01/08 09:22:31;;;;;;;41.75;19.10;;;;;;;0.61;100.00;101064.19;4977247;28;20100;-43
2022/01/08 09:24:56;;;;;;;41.92;19.80;;;;;;;0.64;100.00;101059.59;4980473;28;20470;-44
2022/01/08 09:27:23;;;;;;;46.28;19.38;;;;;;;0.66;100.00;101065.63;4981697;28;20098;-46
2022/01/08 09:29:48;;;;;;;42.58;16.58;;;;;;;0.66;100.00;101057.75;4980920;28;20029;-44
2022/01/08 09:32:13;;;;;;;51.25;19.48;;;;;;;0.67;100.00;101050.69;4980642;28;20030;-44
2022/01/08 09:34:38;;;;;;;34.38;16.70;;;;;;;0.71;100.00;101041.66;4981555;28;20370;-47
2022/01/08 09:37:05;;;;;;;49.08;19.23;;;;;;;0.77;100.00;101043.09;4978549;28;20038;-45
2022/01/08 09:39:31;;;;;;;48.92;19.15;;;;;;;0.80;100.00;101045.53;4976499;28;20473;-45
2022/01/08 09:41:56;;;;;;;54.45;21.95;;;;;;;0.86;100.00;101047.78;4981036;28;20081;-44
2022/01/08 09:44:21;;;;;;;45.85;19.55;;;;;;;0.93;100.00;101042.06;4981041;28;20034;-43
2022/01/08 09:46:47;;;;;;;43.28;17.98;;;;;;;0.98;100.00;101038.31;4980081;28;20441;-45
2022/01/08 09:49:12;;;;;;;42.67;19.10;;;;;;;0.97;100.00;101039.22;4980877;28;20082;-46
2022/01/08 09:51:38;;;;;;;44.25;20.02;;;;;;;0.96;100.00;101032.31;4980852;28;20526;-45
2022/01/08 09:54:04;;;;;;;53.20;22.52;;;;;;;0.93;100.00;101023.66;4981085;28;20030;-43
2022/01/08 09:56:31;;;;;;;42.50;17.35;;;;;;;0.97;100.00;101019.06;4960080;28;20023;-43
2022/01/08 09:58:57;;;;;;;43.70;19.05;;;;;;;1.01;100.00;101006.56;4961349;28;20105;-42
2022/01/08 10:01:27;;;;;;;45.55;20.83;;;;;;;1.05;100.00;101002.78;4963443;28;20038;-44
2022/01/08 10:03:53;;;;;;;44.40;18.90;;;;;;;1.12;100.00;101004.09;4970155;28;20038;-44
2022/01/08 10:06:27;;;;;;;43.92;19.90;;;;;;;1.17;100.00;100999.41;4951505;28;20019;-44
2022/01/08 10:08:52;;;;;;;47.00;20.15;;;;;;;1.21;100.00;100985.09;4954777;28;20619;-45
2022/01/08 10:11:20;;;;;;;40.25;17.95;;;;;;;1.21;100.00;100971.94;4971027;28;20482;-48
2022/01/08 10:13:47;;;;;;;40.22;17.52;;;;;;;1.25;100.00;100962.06;4956449;28;20026;-45
2022/01/08 10:18:59;;;;;;;41.70;17.27;;;;;;;1.34;100.00;100935.19;4971813;28;20061;-44
2022/01/08 10:21:27;;;;;;;42.92;16.63;;;;;;;1.42;100.00;100934.69;4976357;28;20038;-46
2022/01/08 10:23:55;;;;;;;40.20;17.60;;;;;;;1.45;100.00;100929.22;4970000;28;20056;-44
2022/01/08 10:26:22;;;;;;;36.60;14.57;;;;;;;1.48;100.00;100919.34;4971442;28;20066;-45
2022/01/08 10:28:51;;;;;;;41.47;16.77;;;;;;;1.49;100.00;100918.41;4978741;28;20023;-45
2022/01/08 10:31:30;;;;;;;48.40;16.75;;;;;;;1.54;100.00;100914.59;4973814;28;20037;-47
2022/01/08 10:34:01;;;;;;;37.13;15.95;;;;;;;1.59;100.00;100915.16;4980742;28;20022;-44
2022/01/08 10:36:29;;;;;;;43.90;18.45;;;;;;;1.57;100.00;100904.72;4976846;28;20026;-46
2022/01/08 10:38:57;;;;;;;34.42;15.88;;;;;;;1.63;100.00;100906.09;4967591;28;20516;-43
2022/01/08 10:41:24;;;;;;;44.88;15.88;;;;;;;1.65;100.00;100894.53;4969836;28;20426;-45
2022/01/08 10:44:08;;;;;;;35.90;15.20;;;;;;;1.67;100.00;100891.78;4959054;28;20023;-46
2022/01/08 10:46:35;;;;;;;39.22;16.67;;;;;;;1.65;100.00;100885.78;4959272;28;20023;-48
2022/01/08 10:49:01;;;;;;;50.83;18.17;;;;;;;1.67;100.00;100870.72;4961637;28;20037;-44
2022/01/08 10:51:34;;;;;;;43.38;16.85;;;;;;;1.72;100.00;100871.28;4962943;28;20459;-44
2022/01/08 10:54:09;;;;;;;46.33;19.38;;;;;;;1.72;100.00;100857.28;4965257;28;20436;-45
2022/01/08 10:56:38;;;;;;;43.47;20.17;;;;;;;1.73;100.00;100853.69;4963473;28;20122;-44
2022/01/08 10:59:07;;;;;;;45.38;19.52;;;;;;;1.77;100.00;100845.47;4970576;28;20038;-46
2022/01/08 11:01:36;;;;;;;52.72;20.70;;;;;;;1.80;100.00;100839.13;4974252;28;20029;-43
2022/01/08 11:04:02;;;;;;;39.20;18.33;;;;;;;1.81;100.00;100840.84;4951007;28;20064;-43
2022/01/08 11:06:27;;;;;;;48.10;19.13;;;;;;;1.84;100.00;100833.56;4982458;28;20109;-44
2022/01/08 11:09:02;;;;;;;44.78;19.08;;;;;;;1.88;100.00;100828.94;4984256;28;20037;-45
2022/01/08 11:11:31;;;;;;;40.03;15.48;;;;;;;1.92;100.00;100826.91;4966940;28;20417;-45
2022/01/08 11:14:06;;;;;;;42.72;19.38;;;;;;;1.94;100.00;100819.78;4984103;28;20030;-47
2022/01/08 11:16:32;;;;;;;47.47;18.85;;;;;;;1.98;100.00;100810.72;4981417;28;20026;-45
2022/01/08 11:19:01;;;;;;;40.17;18.33;;;;;;;2.04;100.00;100797.94;4978094;28;20110;-47
2022/01/08 11:21:32;;;;;;;43.30;16.73;;;;;;;2.10;100.00;100793.19;4965048;28;20505;-46
2022/01/08 11:23:59;;;;;;;45.60;16.25;;;;;;;2.21;100.00;100788.03;4982428;28;20054;-46